createdAt,value
2022-12-19T00:00:37.360Z,-3.13
2022-12-19T00:03:05.256Z,-3.16
2022-12-19T00:05:37.663Z,-3.16
2022-12-19T00:08:12.411Z,-3.15
2022-12-19T00:10:45.281Z,-3.15
2022-12-19T00:13:15.565Z,-3.12
2022-12-19T00:15:44.919Z,-3.10
2022-12-19T00:18:12.715Z,-3.10
2022-12-19T00:20:40.562Z,-3.13
2022-12-19T00:23:08.881Z,-3.09
2022-12-19T00:25:37.110Z,-3.09
2022-12-19T00:28:07.697Z,-3.04
2022-12-19T00:30:36.045Z,-3.06
2022-12-19T00:33:05.301Z,-3.04
2022-12-19T00:35:32.902Z,-3.06
2022-12-19T00:38:00.660Z,-3.09
2022-12-19T00:40:29.543Z,-3.08
2022-12-19T00:42:57.624Z,-3.07
2022-12-19T00:45:27.896Z,-3.08
2022-12-19T00:47:57.749Z,-3.02
2022-12-19T00:50:26.748Z,-3.03
2022-12-19T00:52:54.366Z,-3.04
2022-12-19T00:55:21.984Z,-3.07
2022-12-19T00:57:49.664Z,-3.04
2022-12-19T01:00:20.737Z,-2.92
2022-12-19T01:02:48.525Z,-2.87
2022-12-19T01:05:16.525Z,-2.79
2022-12-19T01:07:45.623Z,-2.74
2022-12-19T01:10:13.273Z,-2.70
2022-12-19T01:12:45.858Z,-2.65
2022-12-19T01:15:15.490Z,-2.67
2022-12-19T01:17:44.341Z,-2.68
2022-12-19T01:20:15.395Z,-2.66
2022-12-19T01:22:43.126Z,-2.67
2022-12-19T01:25:12.670Z,-2.68
2022-12-19T01:27:40.562Z,-2.67
2022-12-19T01:30:09.425Z,-2.66
2022-12-19T01:32:37.692Z,-2.64
2022-12-19T01:35:06.189Z,-2.65
2022-12-19T01:37:37.765Z,-2.63
2022-12-19T01:40:07.180Z,-2.63
2022-12-19T01:42:37.864Z,-2.69
2022-12-19T01:45:21.736Z,-2.68
2022-12-19T01:47:54.685Z,-2.71
2022-12-19T01:50:28.365Z,-2.72
2022-12-19T01:52:57.925Z,-2.69
2022-12-19T01:55:26.414Z,-2.70
2022-12-19T01:57:57.778Z,-2.70
2022-12-19T02:00:26.989Z,-2.70
2022-12-19T02:03:00.426Z,-2.66
2022-12-19T02:05:28.387Z,-2.64
2022-12-19T02:07:56.307Z,-2.62
2022-12-19T02:10:24.172Z,-2.59
2022-12-19T02:12:51.823Z,-2.57
2022-12-19T02:15:21.948Z,-2.56
2022-12-19T02:18:11.971Z,-2.57
2022-12-19T02:21:08.848Z,-2.59
2022-12-19T02:24:07.339Z,-2.61
2022-12-19T02:26:56.827Z,-2.58
2022-12-19T02:29:54.265Z,-2.58
2022-12-19T02:32:31.807Z,-2.57
2022-12-19T02:35:10.436Z,-2.55
2022-12-19T02:37:50.743Z,-2.50
2022-12-19T02:40:25.031Z,-2.52
2022-12-19T02:42:59.507Z,-2.48
2022-12-19T02:45:31.691Z,-2.50
2022-12-19T02:48:08.379Z,-2.43
2022-12-19T02:50:39.986Z,-2.46
2022-12-19T02:53:10.612Z,-2.47
2022-12-19T02:55:45.168Z,-2.44
2022-12-19T02:58:35.948Z,-2.41
2022-12-19T03:01:15.473Z,-2.43
2022-12-19T03:04:00.869Z,-2.42
2022-12-19T03:06:37.914Z,-2.42
2022-12-19T03:09:14.914Z,-2.38
2022-12-19T03:11:43.813Z,-2.37
2022-12-19T03:14:15.106Z,-2.37
2022-12-19T03:16:42.943Z,-2.36
2022-12-19T03:19:15.103Z,-2.32
2022-12-19T03:21:45.647Z,-2.32
2022-12-19T03:24:17.788Z,-2.32
2022-12-19T03:26:50.379Z,-2.32
2022-12-19T03:29:22.396Z,-2.32
2022-12-19T03:31:50.925Z,-2.28
2022-12-19T03:34:24.669Z,-2.26
2022-12-19T03:36:57.205Z,-2.23
2022-12-19T03:39:26.842Z,-2.18
2022-12-19T03:42:13.433Z,-2.13
2022-12-19T03:44:43.750Z,-2.04
2022-12-19T03:47:16.400Z,-2.04
2022-12-19T03:49:46.372Z,-2.04
2022-12-19T03:52:26.673Z,-1.97
2022-12-19T03:55:02.190Z,-1.96
2022-12-19T03:57:35.956Z,-1.93
2022-12-19T04:00:07.129Z,-1.93
2022-12-19T04:02:48.911Z,-1.94
2022-12-19T04:05:21.946Z,-1.94
2022-12-19T04:07:52.156Z,-1.93
2022-12-19T04:10:22.883Z,-1.90
2022-12-19T04:12:55.043Z,-1.88
2022-12-19T04:15:33.505Z,-1.83
2022-12-19T04:18:04.968Z,-1.71
2022-12-19T04:20:38.830Z,-1.77
2022-12-19T04:23:13.091Z,-1.78
2022-12-19T04:25:44.375Z,-1.75
2022-12-19T04:28:21.461Z,-1.75
2022-12-19T04:30:50.680Z,-1.77
2022-12-19T04:33:18.766Z,-1.76
2022-12-19T04:35:47.799Z,-1.74
2022-12-19T04:38:15.591Z,-1.75
2022-12-19T04:40:43.288Z,-1.72
2022-12-19T04:43:11.360Z,-1.72
2022-12-19T04:45:39.089Z,-1.71
2022-12-19T04:48:07.634Z,-1.69
2022-12-19T04:50:36.781Z,-1.66
2022-12-19T04:53:06.004Z,-1.66
2022-12-19T04:55:33.709Z,-1.59
2022-12-19T04:58:04.028Z,-1.62
2022-12-19T05:00:31.733Z,-1.58
2022-12-19T05:02:59.586Z,-1.58
2022-12-19T05:05:27.537Z,-1.53
2022-12-19T05:07:59.404Z,-1.52
2022-12-19T05:10:28.487Z,-1.51
2022-12-19T05:12:56.069Z,-1.49
2022-12-19T05:15:23.776Z,-1.48
2022-12-19T05:17:51.442Z,-1.47
2022-12-19T05:20:19.265Z,-1.45
2022-12-19T05:22:46.955Z,-1.48
2022-12-19T05:25:15.616Z,-1.34
2022-12-19T05:27:44.788Z,-1.37
2022-12-19T05:30:13.202Z,-1.32
2022-12-19T05:32:41.041Z,-1.26
2022-12-19T05:35:09.053Z,-1.29
2022-12-19T05:37:36.763Z,-1.22
2022-12-19T05:40:05.735Z,-1.25
2022-12-19T05:42:33.752Z,-1.20
2022-12-19T05:45:02.958Z,-1.05
2022-12-19T05:47:30.566Z,-1.04
2022-12-19T05:49:58.254Z,-1.11
2022-12-19T05:52:25.975Z,-1.10
2022-12-19T05:54:53.602Z,-1.16
2022-12-19T05:57:21.686Z,-1.13
2022-12-19T05:59:49.363Z,-1.14
2022-12-19T06:02:18.508Z,-1.14
2022-12-19T06:04:46.283Z,-1.15
2022-12-19T06:07:19.212Z,-1.02
2022-12-19T06:09:48.447Z,-1.04
2022-12-19T06:12:16.150Z,-1.10
2022-12-19T06:14:43.806Z,-1.09
2022-12-19T06:17:11.632Z,-1.05
2022-12-19T06:19:40.649Z,-0.96
2022-12-19T06:22:08.347Z,-0.97
2022-12-19T06:24:39.467Z,-0.89
2022-12-19T06:27:07.512Z,-0.91
2022-12-19T06:29:35.181Z,-0.95
2022-12-19T06:32:03.002Z,-0.83
2022-12-19T06:35:02.175Z,-0.84
2022-12-19T06:37:20.118Z,-0.89
2022-12-19T06:39:47.782Z,-0.88
2022-12-19T06:42:23.407Z,-0.86
2022-12-19T06:44:52.142Z,-0.84
2022-12-19T06:47:20.053Z,-0.81
2022-12-19T06:49:48.381Z,-0.75
2022-12-19T06:52:16.661Z,-0.72
2022-12-19T06:54:46.087Z,-0.69
2022-12-19T06:57:13.793Z,-0.74
2022-12-19T06:59:41.456Z,-0.61
2022-12-19T07:02:22.605Z,-0.76
2022-12-19T07:04:57.954Z,-0.65
2022-12-19T07:07:26.065Z,-0.60
2022-12-19T07:09:55.215Z,-0.72
2022-12-19T07:12:22.867Z,-0.57
2022-12-19T07:14:53.578Z,-0.61
2022-12-19T07:17:23.496Z,-0.72
2022-12-19T07:19:51.597Z,-0.68
2022-12-19T07:22:19.674Z,-0.54
2022-12-19T07:24:47.502Z,-0.50
2022-12-19T07:27:16.821Z,-0.57
2022-12-19T07:29:44.479Z,-0.30
2022-12-19T07:32:12.225Z,-0.41
2022-12-19T07:34:39.873Z,-0.35
2022-12-19T07:37:07.978Z,-0.28
2022-12-19T07:39:35.718Z,-0.31
2022-12-19T07:42:04.143Z,-0.27
2022-12-19T07:44:38.800Z,-0.30
2022-12-19T07:47:08.997Z,-0.35
2022-12-19T07:49:37.257Z,-0.30
2022-12-19T07:52:05.247Z,-0.19
2022-12-19T07:54:33.158Z,-0.33
2022-12-19T07:57:02.163Z,-0.24
2022-12-19T07:59:35.628Z,-0.27
2022-12-19T08:02:08.340Z,-0.13
2022-12-19T08:04:36.201Z,0.03
2022-12-19T08:07:04.424Z,-0.03
2022-12-19T08:09:33.473Z,-0.15
2022-12-19T08:12:01.367Z,0.01
2022-12-19T08:14:29.228Z,0.17
2022-12-19T08:17:19.687Z,0.20
2022-12-19T08:19:45.841Z,-0.08
2022-12-19T08:22:13.563Z,-0.10
2022-12-19T08:24:41.178Z,0.08
2022-12-19T08:27:08.834Z,0.06
2022-12-19T08:29:36.556Z,0.11
2022-12-19T08:32:04.824Z,0.12
2022-12-19T08:34:32.865Z,0.03
2022-12-19T08:37:01.853Z,0.21
2022-12-19T08:39:30.066Z,0.18
2022-12-19T08:41:57.725Z,0.04
2022-12-19T08:44:25.421Z,0.10
2022-12-19T08:46:53.234Z,0.14
2022-12-19T08:49:21.303Z,0.15
2022-12-19T08:51:49.184Z,0.41
2022-12-19T08:54:18.198Z,0.29
2022-12-19T08:56:47.167Z,0.29
2022-12-19T08:59:16.079Z,0.28
2022-12-19T09:01:57.748Z,0.36
2022-12-19T09:06:02.281Z,0.26
2022-12-19T09:07:15.235Z,0.21
2022-12-19T09:09:45.223Z,0.12
2022-12-19T09:12:13.263Z,0.19
2022-12-19T09:14:41.085Z,0.04
2022-12-19T09:17:08.912Z,0.17
2022-12-19T09:19:37.134Z,0.37
2022-12-19T09:22:05.417Z,0.42
2022-12-19T09:24:33.100Z,0.48
2022-12-19T09:27:02.381Z,0.39
2022-12-19T09:29:35.080Z,0.30
2022-12-19T09:32:03.441Z,0.30
2022-12-19T09:34:37.833Z,0.34
2022-12-19T09:37:07.499Z,0.26
2022-12-19T09:39:35.956Z,0.30
2022-12-19T09:42:23.247Z,0.28
2022-12-19T09:45:09.257Z,0.21
2022-12-19T09:47:45.737Z,0.29
2022-12-19T09:50:27.007Z,0.25
2022-12-19T09:53:00.679Z,0.30
2022-12-19T09:55:34.051Z,0.40
2022-12-19T09:58:11.058Z,0.51
2022-12-19T10:00:43.199Z,0.48
2022-12-19T10:03:19.068Z,0.44
2022-12-19T10:07:00.902Z,0.46
2022-12-19T10:09:12.247Z,0.53
2022-12-19T10:12:46.512Z,0.61
2022-12-19T10:14:50.422Z,0.49
2022-12-19T10:17:28.131Z,0.56
2022-12-19T10:20:20.195Z,0.53
2022-12-19T10:23:00.091Z,0.58
2022-12-19T10:25:37.606Z,0.52
2022-12-19T10:28:16.888Z,0.51
2022-12-19T10:30:52.079Z,0.58
2022-12-19T10:33:27.707Z,0.58
2022-12-19T10:36:01.801Z,0.55
2022-12-19T10:38:36.696Z,0.51
2022-12-19T10:41:16.677Z,0.74
2022-12-19T10:43:53.515Z,0.74
2022-12-19T10:46:33.416Z,0.65
2022-12-19T10:49:01.204Z,0.68
2022-12-19T10:51:32.687Z,0.75
2022-12-19T10:54:01.495Z,0.70
2022-12-19T10:56:37.173Z,0.68
2022-12-19T10:59:16.139Z,0.62
2022-12-19T11:01:46.124Z,0.64
2022-12-19T11:04:30.213Z,0.80
2022-12-19T11:07:07.553Z,0.74
2022-12-19T11:09:39.600Z,0.80
2022-12-19T11:15:33.039Z,1.10
2022-12-19T11:19:29.692Z,1.06
2022-12-19T11:29:14.855Z,0.87
2022-12-19T11:29:25.068Z,0.92
2022-12-19T11:30:08.662Z,0.80
2022-12-19T11:30:46.769Z,0.82
2022-12-19T11:32:41.342Z,0.76
2022-12-19T11:35:25.379Z,0.77
2022-12-19T11:38:06.571Z,0.71
2022-12-19T11:40:46.530Z,0.74
2022-12-19T11:43:43.611Z,0.75
2022-12-19T11:46:21.459Z,0.76
2022-12-19T11:48:54.691Z,0.79
2022-12-19T11:51:29.314Z,0.81
2022-12-19T11:54:07.235Z,0.78
2022-12-19T11:56:35.651Z,0.80
2022-12-19T11:59:13.353Z,0.83
2022-12-19T12:01:53.248Z,0.88
2022-12-19T12:04:39.732Z,0.91
2022-12-19T12:07:19.231Z,0.94
2022-12-19T12:14:40.620Z,0.95
2022-12-19T12:22:18.887Z,0.96
2022-12-19T12:30:59.035Z,1.00
2022-12-19T12:31:06.805Z,1.02
2022-12-19T12:31:18.171Z,1.08
2022-12-19T12:31:52.736Z,1.09
2022-12-19T12:32:04.007Z,1.12
2022-12-19T12:35:48.611Z,1.17
2022-12-19T12:40:03.656Z,1.20
2022-12-19T12:42:44.444Z,1.29
2022-12-19T12:45:20.682Z,1.26
2022-12-19T12:47:52.520Z,1.24
2022-12-19T12:50:23.688Z,1.27
2022-12-19T12:52:55.738Z,1.24
2022-12-19T12:55:29.639Z,1.23
2022-12-19T12:57:57.721Z,1.23
2022-12-19T13:00:28.209Z,1.19
2022-12-19T13:03:03.510Z,1.16
2022-12-19T13:05:42.118Z,1.17
2022-12-19T13:08:36.177Z,1.17
2022-12-19T13:11:07.556Z,1.18
2022-12-19T13:13:56.313Z,1.20
2022-12-19T13:16:52.982Z,1.17
2022-12-19T13:19:28.414Z,1.18
2022-12-19T13:22:19.401Z,1.18
2022-12-19T13:24:50.040Z,1.19
2022-12-19T13:27:40.380Z,1.19
2022-12-19T13:30:19.178Z,1.18
2022-12-19T13:33:12.422Z,1.15
2022-12-19T13:37:55.702Z,1.12
2022-12-19T13:40:01.047Z,1.11
2022-12-19T13:41:48.015Z,1.09
2022-12-19T13:44:20.206Z,1.08
2022-12-19T13:46:47.953Z,1.05
2022-12-19T13:49:20.295Z,1.04
2022-12-19T13:51:50.096Z,1.02
2022-12-19T13:54:26.884Z,1.02
2022-12-19T13:56:55.745Z,1.02
2022-12-19T13:59:27.465Z,1.03
2022-12-19T14:01:56.427Z,1.01
2022-12-19T14:04:29.999Z,1.02
2022-12-19T14:07:01.462Z,1.01
2022-12-19T14:11:26.111Z,1.02
2022-12-19T14:13:46.259Z,1.02
2022-12-19T14:15:34.086Z,1.01
2022-12-19T14:18:41.899Z,0.99
2022-12-19T14:22:10.785Z,0.99
2022-12-19T14:23:43.736Z,0.96
2022-12-19T14:28:17.739Z,0.95
2022-12-19T14:29:09.364Z,0.91
2022-12-19T14:32:40.282Z,0.86
2022-12-19T14:35:03.975Z,0.85
2022-12-19T14:38:13.073Z,0.81
2022-12-19T14:40:24.447Z,0.77
2022-12-19T14:43:58.918Z,0.75
2022-12-19T14:54:07.518Z,0.69
2022-12-19T14:54:15.867Z,0.72
2022-12-19T14:54:41.627Z,0.65
2022-12-19T14:58:51.207Z,0.54
2022-12-19T15:01:09.741Z,0.46
2022-12-19T15:03:22.848Z,0.41
2022-12-19T15:05:53.206Z,0.35
2022-12-19T15:09:50.558Z,0.35
2022-12-19T15:11:58.223Z,0.32
2022-12-19T15:14:53.929Z,0.28
2022-12-19T15:17:26.719Z,0.26
2022-12-19T15:19:55.859Z,0.23
2022-12-19T15:22:25.494Z,0.27
2022-12-19T15:24:54.238Z,0.26
2022-12-19T15:27:22.809Z,0.26
2022-12-19T15:29:50.952Z,0.21
2022-12-19T15:32:19.021Z,0.19
2022-12-19T15:34:51.466Z,0.19
2022-12-19T15:37:19.707Z,0.16
2022-12-19T15:39:48.776Z,0.14
2022-12-19T15:42:20.767Z,0.11
2022-12-19T15:44:50.229Z,0.08
2022-12-19T15:47:20.559Z,0.05
2022-12-19T15:49:48.477Z,0.07
2022-12-19T15:52:18.904Z,0.06
2022-12-19T15:54:50.113Z,0.04
2022-12-19T15:57:25.302Z,0.05
2022-12-19T15:59:53.461Z,0.02
2022-12-19T16:02:23.760Z,0.00
2022-12-19T16:04:56.902Z,0.04
2022-12-19T16:07:30.423Z,0.12
2022-12-19T16:09:59.434Z,0.15
2022-12-19T16:12:32.772Z,0.14
2022-12-19T16:15:02.568Z,0.06
2022-12-19T16:17:33.173Z,0.03
2022-12-19T16:20:00.891Z,0.07
2022-12-19T16:22:29.950Z,0.07
2022-12-19T16:24:59.045Z,0.11
2022-12-19T16:27:28.957Z,0.16
2022-12-19T16:29:59.331Z,0.14
2022-12-19T16:32:27.137Z,0.11
2022-12-19T16:34:55.653Z,0.06
2022-12-19T16:37:28.505Z,0.07
2022-12-19T16:39:56.419Z,0.04
2022-12-19T16:42:25.606Z,0.02
2022-12-19T16:44:53.590Z,0.00
2022-12-19T16:47:21.363Z,0.04
2022-12-19T16:49:49.155Z,0.04
2022-12-19T16:52:16.902Z,0.14
2022-12-19T16:54:44.595Z,0.14
2022-12-19T16:57:20.635Z,0.18
2022-12-19T16:59:51.307Z,0.27
2022-12-19T17:02:40.699Z,0.35
2022-12-19T17:05:16.127Z,0.37
2022-12-19T17:07:44.627Z,0.54
2022-12-19T17:10:13.164Z,0.59
2022-12-19T17:12:41.404Z,0.65
2022-12-19T17:15:22.419Z,0.59
2022-12-19T17:17:51.163Z,0.63
2022-12-19T17:20:21.782Z,0.61
2022-12-19T17:22:49.671Z,0.57
2022-12-19T17:25:21.083Z,0.57
2022-12-19T17:27:49.632Z,0.56
2022-12-19T17:30:19.919Z,0.53
2022-12-19T17:32:50.326Z,0.50
2022-12-19T17:35:25.731Z,0.45
2022-12-19T17:37:57.548Z,0.43
2022-12-19T17:40:27.171Z,0.40
2022-12-19T17:42:55.544Z,0.40
2022-12-19T17:45:25.798Z,0.40
2022-12-19T17:48:02.046Z,0.33
2022-12-19T17:50:31.699Z,0.33
2022-12-19T17:52:59.790Z,0.29
2022-12-19T17:55:29.567Z,0.26
2022-12-19T17:57:58.106Z,0.26
2022-12-19T18:00:30.924Z,0.26
2022-12-19T18:03:04.527Z,0.28
2022-12-19T18:05:35.744Z,0.29
2022-12-19T18:08:04.675Z,0.29
2022-12-19T18:10:33.094Z,0.28
2022-12-19T18:13:01.093Z,0.28
2022-12-19T18:15:30.204Z,0.27
2022-12-19T18:17:58.529Z,0.25
2022-12-19T18:20:31.780Z,0.19
2022-12-19T18:23:04.216Z,0.18
2022-12-19T18:25:35.177Z,0.19
2022-12-19T18:28:03.152Z,0.16
2022-12-19T18:30:32.373Z,0.16
2022-12-19T18:33:02.372Z,0.15
2022-12-19T18:35:34.875Z,0.14
2022-12-19T18:38:07.883Z,0.14
2022-12-19T18:40:35.776Z,0.14
2022-12-19T18:43:03.445Z,0.15
2022-12-19T18:45:36.215Z,0.06
2022-12-19T18:48:08.334Z,0.08
2022-12-19T18:50:36.221Z,0.05
2022-12-19T18:53:07.477Z,-0.02
2022-12-19T18:55:35.582Z,0.02
2022-12-19T18:58:03.365Z,0.19
2022-12-19T19:00:31.721Z,0.32
2022-12-19T19:03:04.020Z,0.44
2022-12-19T19:05:33.273Z,0.48
2022-12-19T19:08:12.892Z,0.47
2022-12-19T19:10:40.611Z,0.47
2022-12-19T19:13:12.177Z,0.50
2022-12-19T19:15:46.536Z,0.33
2022-12-19T19:18:17.442Z,0.16
2022-12-19T19:20:46.833Z,0.14
2022-12-19T19:23:15.229Z,0.25
2022-12-19T19:25:43.410Z,0.31
2022-12-19T19:28:11.233Z,0.38
2022-12-19T19:30:40.673Z,0.46
2022-12-19T19:33:14.076Z,0.61
2022-12-19T19:35:45.828Z,0.71
2022-12-19T19:38:16.342Z,0.73
2022-12-19T19:40:44.148Z,0.81
2022-12-19T19:43:11.827Z,0.85
2022-12-19T19:45:43.366Z,0.91
2022-12-19T19:48:11.833Z,0.95
2022-12-19T19:50:39.928Z,1.02
2022-12-19T19:53:09.035Z,1.06
2022-12-19T19:55:36.815Z,1.08
2022-12-19T19:58:05.209Z,1.08
2022-12-19T20:00:33.181Z,1.08
2022-12-19T20:03:05.612Z,1.13
2022-12-19T20:05:35.937Z,1.19
2022-12-19T20:08:03.797Z,1.25
2022-12-19T20:10:32.954Z,1.24
2022-12-19T20:13:00.782Z,1.24
2022-12-19T20:15:28.551Z,1.25
2022-12-19T20:17:56.281Z,1.23
2022-12-19T20:20:25.016Z,1.18
2022-12-19T20:22:52.808Z,1.08
2022-12-19T20:25:20.440Z,0.85
2022-12-19T20:27:49.419Z,0.69
2022-12-19T20:30:18.083Z,0.63
2022-12-19T20:32:45.768Z,0.61
2022-12-19T20:35:15.037Z,0.53
2022-12-19T20:37:43.008Z,0.46
2022-12-19T20:40:11.632Z,0.48
2022-12-19T20:42:39.312Z,0.48
2022-12-19T20:45:09.328Z,0.48
2022-12-19T20:47:37.134Z,0.45
2022-12-19T20:50:06.023Z,0.44
2022-12-19T20:52:33.878Z,0.44
2022-12-19T20:55:01.592Z,0.41
2022-12-19T20:57:30.442Z,0.42
2022-12-19T20:59:58.159Z,0.43
2022-12-19T21:02:27.514Z,0.41
2022-12-19T21:04:55.456Z,0.41
2022-12-19T21:07:23.666Z,0.41
2022-12-19T21:09:53.928Z,0.37
2022-12-19T21:12:22.479Z,0.34
2022-12-19T21:14:50.730Z,0.31
2022-12-19T21:17:18.456Z,0.29
2022-12-19T21:19:48.314Z,0.27
2022-12-19T21:22:16.227Z,0.27
2022-12-19T21:24:43.855Z,0.28
2022-12-19T21:27:11.519Z,0.29
2022-12-19T21:29:39.399Z,0.33
2022-12-19T21:32:09.126Z,0.35
2022-12-19T21:34:38.747Z,0.36
2022-12-19T21:37:07.772Z,0.38
2022-12-19T21:39:35.401Z,0.37
2022-12-19T21:42:03.552Z,0.38
2022-12-19T21:44:31.409Z,0.40
2022-12-19T21:46:59.387Z,0.42
2022-12-19T21:49:27.253Z,0.43
2022-12-19T21:51:55.346Z,0.43
2022-12-19T21:54:24.793Z,0.44
2022-12-19T21:56:52.457Z,0.42
2022-12-19T21:59:20.136Z,0.40
2022-12-19T22:01:47.981Z,0.39
2022-12-19T22:04:21.157Z,0.36
2022-12-19T22:06:50.004Z,0.36
2022-12-19T22:09:20.172Z,0.35
2022-12-19T22:11:49.668Z,0.37
2022-12-19T22:14:18.227Z,0.39
2022-12-19T22:16:46.140Z,0.43
2022-12-19T22:19:15.134Z,0.43
2022-12-19T22:21:42.837Z,0.50
2022-12-19T22:24:12.637Z,0.42
2022-12-19T22:26:40.727Z,0.38
2022-12-19T22:29:11.547Z,0.44
2022-12-19T22:31:40.703Z,0.44
2022-12-19T22:34:11.233Z,0.50
2022-12-19T22:36:40.599Z,0.40
2022-12-19T22:39:10.747Z,0.41
2022-12-19T22:41:39.500Z,0.40
2022-12-19T22:44:09.781Z,0.38
2022-12-19T22:46:38.722Z,0.38
2022-12-19T22:49:09.270Z,0.41
2022-12-19T22:51:37.800Z,0.42
2022-12-19T22:54:06.535Z,0.43
2022-12-19T22:56:35.554Z,0.41
2022-12-19T22:59:06.484Z,0.40
2022-12-19T23:01:37.893Z,0.36
2022-12-19T23:04:07.811Z,0.33
2022-12-19T23:06:37.156Z,0.38
2022-12-19T23:09:06.255Z,0.39
2022-12-19T23:11:36.103Z,0.43
2022-12-19T23:14:05.465Z,0.47
2022-12-19T23:16:33.168Z,0.46
2022-12-19T23:19:02.220Z,0.46
2022-12-19T23:21:30.025Z,0.45
2022-12-19T23:23:57.827Z,0.46
2022-12-19T23:26:28.074Z,0.45
2022-12-19T23:28:58.937Z,0.51
2022-12-19T23:31:27.738Z,0.53
2022-12-19T23:33:56.334Z,0.53
2022-12-19T23:39:14.981Z,0.58
2022-12-19T23:41:42.998Z,0.63
2022-12-19T23:44:11.756Z,0.66
2022-12-19T23:46:39.960Z,0.71
2022-12-19T23:49:07.970Z,0.70
2022-12-19T23:51:37.029Z,0.69
2022-12-19T23:54:05.005Z,0.70
2022-12-19T23:56:33.226Z,0.66
2022-12-19T23:59:01.282Z,0.63
